Oakwood, TX (75855)

3:35 AM CST on December 05, 2016 (GMT -0600)
End Of The Road Tree Farm | | Change Station

Elev 450 ft 31.72 °N, 95.95 °W | Updated 5 seconds ago

Light Drizzle
Light Drizzle
47.9 °F
Feels Like 48 °F
N
0.0
Wind Variable Wind from ENE
Gusts 2.0 mph

Today
High -- | Low -- °F
--% Chance of Precip.
Yesterday
High -- | Low -- °F
Precip. -- in
Pressure 29.95 in
Visibility 10.0 miles
Clouds Scattered Clouds 800 ft
Scattered Clouds 5500 ft
Overcast 11000 ft
Windchill 48 °F
Dew Point 47 °F
Humidity 98%
Rainfall 0.00 in
Snow Depth Not available.
7:08 AM 5:19 PM
Waxing Crescent, 30% visible
METAR KPSN 050915Z AUTO 06004KT 10SM -DZ SCT008 SCT055 OVC110 08/08 A2995 RMK AO2 T00910087
Pressure 29.95 in
Visibility 10.0 miles
Clouds Scattered Clouds 800 ft
Scattered Clouds 5500 ft
Overcast 11000 ft
Windchill 48 °F
Dew Point 47 °F
Humidity 98%
Rainfall 0.00 in
Snow Depth Not available.
7:08 AM 5:19 PM
Waxing Crescent, 30% visible
METAR KPSN 050915Z AUTO 06004KT 10SM -DZ SCT008 SCT055 OVC110 08/08 A2995 RMK AO2 T00910087

10-Day Weather Forecast

Almanac

Astronomy

Dec. 05, 2016 Rise Set
Actual Time
Civil Twilight
Nautical Twilight
Astronomical Twilight
Moon
Length of Visible Light
Length of Day
Tomorrow will be .
, % of the Moon is Illuminated

Today's Extremes

State Highs State Lows

Community

WunderPhotos

Upload Photos

1,955,775 photos uploaded!

WunderBlog® & News

Nearby

Air Quality

  Air Quality AQ Index Pollutant
Not available.

Snow Depth

Station Depth Elevation

Earthquake Activity

City Distance Mag. Time & Date
Minimum magnitude displayed is 2.5.

Coastal Water Temperatures

Place Temperature

Stations

Nearby Weather Stations

Station Location Temp. Windchill Dew Point Humidity Wind Precip. Elev Updated Type
                   

Watches & Warnings

There are currently no watches in effect.